sensor_id;sensor_type;location;lat;lon;timestamp;P1;durP1;ratioP1;P2;durP2;ratioP2
34481;SDS011;20720;48.886;9.388;2023-07-02T00:00:17;3.92;;;2.80;;
34481;SDS011;20720;48.886;9.388;2023-07-02T00:02:42;6.53;;;2.75;;
34481;SDS011;20720;48.886;9.388;2023-07-02T00:05:08;8.23;;;3.28;;
34481;SDS011;20720;48.886;9.388;2023-07-02T00:07:33;5.22;;;3.10;;
34481;SDS011;20720;48.886;9.388;2023-07-02T00:10:01;3.70;;;2.45;;
34481;SDS011;20720;48.886;9.388;2023-07-02T00:12:26;7.18;;;2.75;;
34481;SDS011;20720;48.886;9.388;2023-07-02T00:14:51;4.18;;;2.88;;
34481;SDS011;20720;48.886;9.388;2023-07-02T00:17:18;5.35;;;2.88;;
34481;SDS011;20720;48.886;9.388;2023-07-02T00:19:43;3.97;;;2.83;;
34481;SDS011;20720;48.886;9.388;2023-07-02T00:22:11;4.68;;;3.15;;
34481;SDS011;20720;48.886;9.388;2023-07-02T00:24:37;4.63;;;3.03;;
34481;SDS011;20720;48.886;9.388;2023-07-02T00:27:02;5.28;;;2.97;;
34481;SDS011;20720;48.886;9.388;2023-07-02T00:29:28;4.65;;;2.90;;
34481;SDS011;20720;48.886;9.388;2023-07-02T00:31:53;7.30;;;2.92;;
34481;SDS011;20720;48.886;9.388;2023-07-02T00:34:18;3.92;;;2.80;;
34481;SDS011;20720;48.886;9.388;2023-07-02T00:36:44;3.88;;;2.55;;
34481;SDS011;20720;48.886;9.388;2023-07-02T00:39:09;4.80;;;2.63;;
34481;SDS011;20720;48.886;9.388;2023-07-02T00:41:37;4.82;;;2.72;;
34481;SDS011;20720;48.886;9.388;2023-07-02T00:44:02;3.65;;;2.78;;
34481;SDS011;20720;48.886;9.388;2023-07-02T00:46:27;4.57;;;2.72;;
34481;SDS011;20720;48.886;9.388;2023-07-02T00:48:53;4.13;;;2.53;;
34481;SDS011;20720;48.886;9.388;2023-07-02T00:51:26;5.65;;;2.78;;
34481;SDS011;20720;48.886;9.388;2023-07-02T00:53:53;5.00;;;3.17;;
34481;SDS011;20720;48.886;9.388;2023-07-02T00:56:22;4.00;;;3.30;;
34481;SDS011;20720;48.886;9.388;2023-07-02T00:58:49;3.97;;;2.85;;
34481;SDS011;20720;48.886;9.388;2023-07-02T01:01:20;6.82;;;3.10;;
34481;SDS011;20720;48.886;9.388;2023-07-02T01:06:18;4.00;;;3.05;;
34481;SDS011;20720;48.886;9.388;2023-07-02T01:08:49;4.68;;;3.40;;
34481;SDS011;20720;48.886;9.388;2023-07-02T01:11:15;5.38;;;3.47;;
34481;SDS011;20720;48.886;9.388;2023-07-02T01:13:40;4.97;;;3.17;;
34481;SDS011;20720;48.886;9.388;2023-07-02T01:16:06;4.97;;;3.30;;
34481;SDS011;20720;48.886;9.388;2023-07-02T01:18:31;5.72;;;3.28;;
34481;SDS011;20720;48.886;9.388;2023-07-02T01:20:56;4.10;;;2.67;;
34481;SDS011;20720;48.886;9.388;2023-07-02T01:23:22;4.28;;;2.85;;
34481;SDS011;20720;48.886;9.388;2023-07-02T01:25:48;5.32;;;3.30;;
34481;SDS011;20720;48.886;9.388;2023-07-02T01:28:16;5.03;;;3.15;;
34481;SDS011;20720;48.886;9.388;2023-07-02T01:30:41;5.57;;;2.72;;
34481;SDS011;20720;48.886;9.388;2023-07-02T01:33:07;3.83;;;2.63;;
34481;SDS011;20720;48.886;9.388;2023-07-02T01:35:32;3.80;;;3.15;;
34481;SDS011;20720;48.886;9.388;2023-07-02T01:37:57;5.15;;;3.10;;
34481;SDS011;20720;48.886;9.388;2023-07-02T01:40:22;4.32;;;2.65;;
34481;SDS011;20720;48.886;9.388;2023-07-02T01:42:48;3.83;;;2.65;;
34481;SDS011;20720;48.886;9.388;2023-07-02T01:45:13;5.15;;;2.92;;
34481;SDS011;20720;48.886;9.388;2023-07-02T01:47:38;7.35;;;3.13;;
34481;SDS011;20720;48.886;9.388;2023-07-02T01:50:04;5.70;;;2.60;;
34481;SDS011;20720;48.886;9.388;2023-07-02T01:52:30;5.53;;;3.67;;
34481;SDS011;20720;48.886;9.388;2023-07-02T01:54:58;3.53;;;2.70;;
34481;SDS011;20720;48.886;9.388;2023-07-02T01:57:23;5.13;;;3.13;;
34481;SDS011;20720;48.886;9.388;2023-07-02T01:59:48;5.32;;;3.03;;
34481;SDS011;20720;48.886;9.388;2023-07-02T02:02:14;4.63;;;3.30;;
34481;SDS011;20720;48.886;9.388;2023-07-02T02:04:39;3.58;;;2.60;;
34481;SDS011;20720;48.886;9.388;2023-07-02T02:07:04;4.50;;;2.92;;
34481;SDS011;20720;48.886;9.388;2023-07-02T02:09:29;5.13;;;3.00;;
34481;SDS011;20720;48.886;9.388;2023-07-02T02:11:57;5.13;;;2.55;;
34481;SDS011;20720;48.886;9.388;2023-07-02T02:14:22;4.75;;;2.67;;
34481;SDS011;20720;48.886;9.388;2023-07-02T02:16:47;4.10;;;3.10;;
34481;SDS011;20720;48.886;9.388;2023-07-02T02:19:13;9.00;;;2.88;;
34481;SDS011;20720;48.886;9.388;2023-07-02T02:21:41;3.75;;;3.05;;
34481;SDS011;20720;48.886;9.388;2023-07-02T02:24:06;4.65;;;2.60;;
34481;SDS011;20720;48.886;9.388;2023-07-02T02:26:35;4.82;;;2.78;;
34481;SDS011;20720;48.886;9.388;2023-07-02T02:29:00;5.85;;;3.08;;
34481;SDS011;20720;48.886;9.388;2023-07-02T02:31:26;6.07;;;2.95;;
34481;SDS011;20720;48.886;9.388;2023-07-02T02:33:51;11.65;;;3.97;;
34481;SDS011;20720;48.886;9.388;2023-07-02T02:36:16;9.70;;;3.10;;
34481;SDS011;20720;48.886;9.388;2023-07-02T02:38:42;4.03;;;2.53;;
34481;SDS011;20720;48.886;9.388;2023-07-02T02:41:07;3.88;;;2.75;;
34481;SDS011;20720;48.886;9.388;2023-07-02T02:43:33;5.47;;;2.85;;
34481;SDS011;20720;48.886;9.388;2023-07-02T02:45:58;5.35;;;2.28;;
34481;SDS011;20720;48.886;9.388;2023-07-02T02:48:24;6.40;;;3.20;;
34481;SDS011;20720;48.886;9.388;2023-07-02T02:50:49;4.72;;;2.67;;
34481;SDS011;20720;48.886;9.388;2023-07-02T02:53:14;9.40;;;2.72;;
34481;SDS011;20720;48.886;9.388;2023-07-02T02:55:40;4.45;;;3.17;;
34481;SDS011;20720;48.886;9.388;2023-07-02T02:58:05;4.63;;;2.88;;
34481;SDS011;20720;48.886;9.388;2023-07-02T03:00:30;5.47;;;2.80;;
34481;SDS011;20720;48.886;9.388;2023-07-02T03:02:56;5.47;;;2.90;;
34481;SDS011;20720;48.886;9.388;2023-07-02T03:05:21;4.45;;;2.63;;
34481;SDS011;20720;48.886;9.388;2023-07-02T03:07:47;11.50;;;3.03;;
34481;SDS011;20720;48.886;9.388;2023-07-02T03:10:13;6.43;;;3.03;;
34481;SDS011;20720;48.886;9.388;2023-07-02T03:12:38;7.05;;;3.00;;
34481;SDS011;20720;48.886;9.388;2023-07-02T03:15:03;6.65;;;2.75;;
34481;SDS011;20720;48.886;9.388;2023-07-02T03:17:29;5.97;;;2.88;;
34481;SDS011;20720;48.886;9.388;2023-07-02T03:19:54;5.53;;;3.03;;
34481;SDS011;20720;48.886;9.388;2023-07-02T03:22:19;7.30;;;3.60;;
34481;SDS011;20720;48.886;9.388;2023-07-02T03:24:44;6.32;;;2.78;;
34481;SDS011;20720;48.886;9.388;2023-07-02T03:27:10;9.30;;;3.30;;
34481;SDS011;20720;48.886;9.388;2023-07-02T03:29:35;6.35;;;3.22;;
34481;SDS011;20720;48.886;9.388;2023-07-02T03:32:01;7.03;;;3.70;;
34481;SDS011;20720;48.886;9.388;2023-07-02T03:34:26;7.45;;;3.20;;
34481;SDS011;20720;48.886;9.388;2023-07-02T03:36:52;9.55;;;3.70;;
34481;SDS011;20720;48.886;9.388;2023-07-02T03:39:17;9.88;;;4.00;;
34481;SDS011;20720;48.886;9.388;2023-07-02T03:41:42;7.10;;;4.05;;
34481;SDS011;20720;48.886;9.388;2023-07-02T03:44:08;7.55;;;3.80;;
34481;SDS011;20720;48.886;9.388;2023-07-02T03:46:33;7.72;;;3.95;;
34481;SDS011;20720;48.886;9.388;2023-07-02T03:48:59;6.43;;;4.38;;
34481;SDS011;20720;48.886;9.388;2023-07-02T03:51:24;7.53;;;4.25;;
34481;SDS011;20720;48.886;9.388;2023-07-02T03:53:50;9.70;;;3.97;;
34481;SDS011;20720;48.886;9.388;2023-07-02T03:56:15;9.13;;;4.72;;
34481;SDS011;20720;48.886;9.388;2023-07-02T03:58:40;6.80;;;4.38;;
34481;SDS011;20720;48.886;9.388;2023-07-02T04:01:06;12.02;;;5.00;;
34481;SDS011;20720;48.886;9.388;2023-07-02T04:03:31;11.75;;;4.70;;
34481;SDS011;20720;48.886;9.388;2023-07-02T04:05:56;9.45;;;4.68;;
34481;SDS011;20720;48.886;9.388;2023-07-02T04:08:22;9.18;;;4.75;;
34481;SDS011;20720;48.886;9.388;2023-07-02T04:10:47;8.38;;;4.40;;
34481;SDS011;20720;48.886;9.388;2023-07-02T04:13:12;9.48;;;4.57;;
34481;SDS011;20720;48.886;9.388;2023-07-02T04:15:38;8.05;;;4.63;;
34481;SDS011;20720;48.886;9.388;2023-07-02T04:18:03;12.90;;;5.28;;
34481;SDS011;20720;48.886;9.388;2023-07-02T04:20:28;10.32;;;5.03;;
34481;SDS011;20720;48.886;9.388;2023-07-02T04:22:54;10.43;;;5.40;;
34481;SDS011;20720;48.886;9.388;2023-07-02T04:25:19;9.82;;;5.03;;
34481;SDS011;20720;48.886;9.388;2023-07-02T04:27:45;12.73;;;5.30;;
34481;SDS011;20720;48.886;9.388;2023-07-02T04:30:10;9.82;;;4.50;;
34481;SDS011;20720;48.886;9.388;2023-07-02T04:32:37;10.57;;;5.80;;
34481;SDS011;20720;48.886;9.388;2023-07-02T04:35:06;11.55;;;5.68;;
34481;SDS011;20720;48.886;9.388;2023-07-02T04:37:33;12.43;;;5.65;;
34481;SDS011;20720;48.886;9.388;2023-07-02T04:39:58;13.50;;;5.68;;
34481;SDS011;20720;48.886;9.388;2023-07-02T04:42:23;12.57;;;6.03;;
34481;SDS011;20720;48.886;9.388;2023-07-02T04:44:56;15.75;;;6.50;;
34481;SDS011;20720;48.886;9.388;2023-07-02T04:47:27;11.85;;;5.90;;
34481;SDS011;20720;48.886;9.388;2023-07-02T04:49:53;10.88;;;6.13;;
34481;SDS011;20720;48.886;9.388;2023-07-02T04:52:18;12.40;;;5.72;;
34481;SDS011;20720;48.886;9.388;2023-07-02T04:54:43;12.10;;;6.00;;
34481;SDS011;20720;48.886;9.388;2023-07-02T04:57:08;11.32;;;5.82;;
34481;SDS011;20720;48.886;9.388;2023-07-02T04:59:33;10.68;;;6.18;;
34481;SDS011;20720;48.886;9.388;2023-07-02T05:01:59;11.17;;;6.00;;
34481;SDS011;20720;48.886;9.388;2023-07-02T05:04:24;13.95;;;6.03;;
34481;SDS011;20720;48.886;9.388;2023-07-02T05:06:49;16.38;;;5.97;;
34481;SDS011;20720;48.886;9.388;2023-07-02T05:09:14;8.52;;;5.22;;
34481;SDS011;20720;48.886;9.388;2023-07-02T05:11:40;9.27;;;5.55;;
34481;SDS011;20720;48.886;9.388;2023-07-02T05:14:05;10.35;;;5.35;;
34481;SDS011;20720;48.886;9.388;2023-07-02T05:16:30;10.20;;;5.10;;
34481;SDS011;20720;48.886;9.388;2023-07-02T05:18:55;10.02;;;4.75;;
34481;SDS011;20720;48.886;9.388;2023-07-02T05:21:20;11.70;;;4.53;;
34481;SDS011;20720;48.886;9.388;2023-07-02T05:23:47;8.18;;;4.70;;
34481;SDS011;20720;48.886;9.388;2023-07-02T05:26:13;9.77;;;4.68;;
34481;SDS011;20720;48.886;9.388;2023-07-02T05:28:38;9.73;;;4.68;;
34481;SDS011;20720;48.886;9.388;2023-07-02T05:31:04;10.50;;;4.22;;
34481;SDS011;20720;48.886;9.388;2023-07-02T05:33:29;9.38;;;3.63;;
34481;SDS011;20720;48.886;9.388;2023-07-02T05:35:56;8.40;;;3.72;;
34481;SDS011;20720;48.886;9.388;2023-07-02T05:38:21;6.53;;;3.58;;
34481;SDS011;20720;48.886;9.388;2023-07-02T05:40:46;7.50;;;3.95;;
34481;SDS011;20720;48.886;9.388;2023-07-02T05:43:12;7.40;;;3.30;;
34481;SDS011;20720;48.886;9.388;2023-07-02T05:45:37;8.90;;;3.63;;
34481;SDS011;20720;48.886;9.388;2023-07-02T05:48:02;6.60;;;3.42;;
34481;SDS011;20720;48.886;9.388;2023-07-02T05:50:28;5.78;;;3.33;;
34481;SDS011;20720;48.886;9.388;2023-07-02T05:52:53;6.60;;;3.33;;
34481;SDS011;20720;48.886;9.388;2023-07-02T05:55:18;6.93;;;3.83;;
34481;SDS011;20720;48.886;9.388;2023-07-02T05:57:43;8.18;;;3.38;;
34481;SDS011;20720;48.886;9.388;2023-07-02T06:00:09;6.03;;;3.60;;
34481;SDS011;20720;48.886;9.388;2023-07-02T06:02:35;6.55;;;3.60;;
34481;SDS011;20720;48.886;9.388;2023-07-02T06:05:01;6.18;;;3.45;;
34481;SDS011;20720;48.886;9.388;2023-07-02T06:07:26;7.80;;;3.55;;
34481;SDS011;20720;48.886;9.388;2023-07-02T06:09:52;8.23;;;3.92;;
34481;SDS011;20720;48.886;9.388;2023-07-02T06:12:17;8.23;;;3.78;;
34481;SDS011;20720;48.886;9.388;2023-07-02T06:14:43;8.85;;;4.95;;
34481;SDS011;20720;48.886;9.388;2023-07-02T06:17:08;9.50;;;4.22;;
34481;SDS011;20720;48.886;9.388;2023-07-02T06:19:34;9.30;;;4.90;;
34481;SDS011;20720;48.886;9.388;2023-07-02T06:22:00;12.45;;;5.60;;
34481;SDS011;20720;48.886;9.388;2023-07-02T06:24:25;9.90;;;5.47;;
34481;SDS011;20720;48.886;9.388;2023-07-02T06:26:51;7.45;;;4.35;;
34481;SDS011;20720;48.886;9.388;2023-07-02T06:29:16;7.53;;;4.50;;
34481;SDS011;20720;48.886;9.388;2023-07-02T06:31:41;12.88;;;4.72;;
34481;SDS011;20720;48.886;9.388;2023-07-02T06:34:07;9.32;;;5.13;;
34481;SDS011;20720;48.886;9.388;2023-07-02T06:36:33;10.15;;;4.88;;
34481;SDS011;20720;48.886;9.388;2023-07-02T06:38:58;9.13;;;5.43;;
34481;SDS011;20720;48.886;9.388;2023-07-02T06:41:24;8.48;;;4.57;;
34481;SDS011;20720;48.886;9.388;2023-07-02T06:43:49;9.43;;;4.90;;
34481;SDS011;20720;48.886;9.388;2023-07-02T06:46:14;12.55;;;4.97;;
34481;SDS011;20720;48.886;9.388;2023-07-02T06:48:40;10.50;;;5.40;;
34481;SDS011;20720;48.886;9.388;2023-07-02T06:51:05;9.45;;;5.32;;
34481;SDS011;20720;48.886;9.388;2023-07-02T06:53:32;15.77;;;5.78;;
34481;SDS011;20720;48.886;9.388;2023-07-02T06:55:57;12.93;;;5.63;;
34481;SDS011;20720;48.886;9.388;2023-07-02T06:58:22;10.18;;;5.45;;
34481;SDS011;20720;48.886;9.388;2023-07-02T07:00:47;10.18;;;4.97;;
34481;SDS011;20720;48.886;9.388;2023-07-02T07:03:13;11.30;;;5.97;;
34481;SDS011;20720;48.886;9.388;2023-07-02T07:05:38;9.48;;;5.30;;
34481;SDS011;20720;48.886;9.388;2023-07-02T07:08:03;11.17;;;5.90;;
34481;SDS011;20720;48.886;9.388;2023-07-02T07:10:29;9.30;;;5.45;;
34481;SDS011;20720;48.886;9.388;2023-07-02T07:12:59;11.90;;;6.32;;
34481;SDS011;20720;48.886;9.388;2023-07-02T07:15:24;11.15;;;6.10;;
34481;SDS011;20720;48.886;9.388;2023-07-02T07:17:49;11.52;;;5.63;;
34481;SDS011;20720;48.886;9.388;2023-07-02T07:20:15;9.60;;;5.50;;
34481;SDS011;20720;48.886;9.388;2023-07-02T07:22:40;12.07;;;5.95;;
34481;SDS011;20720;48.886;9.388;2023-07-02T07:25:05;9.27;;;5.85;;
34481;SDS011;20720;48.886;9.388;2023-07-02T07:27:31;10.30;;;5.50;;
34481;SDS011;20720;48.886;9.388;2023-07-02T07:29:56;11.73;;;5.83;;
34481;SDS011;20720;48.886;9.388;2023-07-02T07:32:21;8.90;;;5.53;;
34481;SDS011;20720;48.886;9.388;2023-07-02T07:34:46;12.02;;;6.03;;
34481;SDS011;20720;48.886;9.388;2023-07-02T07:37:11;10.13;;;6.13;;
34481;SDS011;20720;48.886;9.388;2023-07-02T07:39:37;13.13;;;6.53;;
34481;SDS011;20720;48.886;9.388;2023-07-02T07:42:02;10.68;;;6.10;;
34481;SDS011;20720;48.886;9.388;2023-07-02T07:44:27;11.77;;;6.97;;
34481;SDS011;20720;48.886;9.388;2023-07-02T07:46:54;13.70;;;6.75;;
34481;SDS011;20720;48.886;9.388;2023-07-02T07:49:20;12.35;;;6.25;;
34481;SDS011;20720;48.886;9.388;2023-07-02T07:51:46;14.32;;;6.60;;
34481;SDS011;20720;48.886;9.388;2023-07-02T07:54:11;15.48;;;7.25;;
34481;SDS011;20720;48.886;9.388;2023-07-02T07:56:36;11.77;;;6.90;;
34481;SDS011;20720;48.886;9.388;2023-07-02T07:59:02;14.48;;;7.53;;
34481;SDS011;20720;48.886;9.388;2023-07-02T08:01:27;9.85;;;7.00;;
34481;SDS011;20720;48.886;9.388;2023-07-02T08:03:53;12.85;;;7.55;;
34481;SDS011;20720;48.886;9.388;2023-07-02T08:06:18;13.00;;;7.15;;
34481;SDS011;20720;48.886;9.388;2023-07-02T08:08:43;15.50;;;8.40;;
34481;SDS011;20720;48.886;9.388;2023-07-02T08:11:09;19.23;;;9.10;;
34481;SDS011;20720;48.886;9.388;2023-07-02T08:13:34;15.95;;;9.48;;
34481;SDS011;20720;48.886;9.388;2023-07-02T08:15:59;17.00;;;9.57;;
34481;SDS011;20720;48.886;9.388;2023-07-02T08:18:24;19.30;;;10.23;;
34481;SDS011;20720;48.886;9.388;2023-07-02T08:20:50;17.70;;;9.88;;
34481;SDS011;20720;48.886;9.388;2023-07-02T08:23:15;16.02;;;9.55;;
34481;SDS011;20720;48.886;9.388;2023-07-02T08:25:40;20.27;;;9.65;;
34481;SDS011;20720;48.886;9.388;2023-07-02T08:28:05;15.37;;;8.87;;
34481;SDS011;20720;48.886;9.388;2023-07-02T08:30:31;18.33;;;9.68;;
34481;SDS011;20720;48.886;9.388;2023-07-02T08:32:56;17.83;;;9.75;;
34481;SDS011;20720;48.886;9.388;2023-07-02T08:35:21;17.42;;;9.52;;
34481;SDS011;20720;48.886;9.388;2023-07-02T08:37:47;18.20;;;10.70;;
34481;SDS011;20720;48.886;9.388;2023-07-02T08:40:16;20.17;;;10.00;;
34481;SDS011;20720;48.886;9.388;2023-07-02T08:42:45;15.95;;;9.00;;
34481;SDS011;20720;48.886;9.388;2023-07-02T08:45:13;19.95;;;9.85;;
34481;SDS011;20720;48.886;9.388;2023-07-02T08:47:41;15.48;;;9.80;;
34481;SDS011;20720;48.886;9.388;2023-07-02T08:50:08;19.15;;;10.48;;
34481;SDS011;20720;48.886;9.388;2023-07-02T08:52:33;18.30;;;10.73;;
34481;SDS011;20720;48.886;9.388;2023-07-02T08:54:59;15.15;;;9.02;;
34481;SDS011;20720;48.886;9.388;2023-07-02T08:57:24;18.00;;;9.57;;
34481;SDS011;20720;48.886;9.388;2023-07-02T08:59:49;16.98;;;10.20;;
34481;SDS011;20720;48.886;9.388;2023-07-02T09:02:16;18.13;;;10.18;;
34481;SDS011;20720;48.886;9.388;2023-07-02T09:04:42;17.15;;;10.00;;
34481;SDS011;20720;48.886;9.388;2023-07-02T09:07:08;17.00;;;9.90;;
34481;SDS011;20720;48.886;9.388;2023-07-02T09:09:47;17.20;;;9.60;;
34481;SDS011;20720;48.886;9.388;2023-07-02T09:14:56;17.50;;;10.00;;
34481;SDS011;20720;48.886;9.388;2023-07-02T09:17:29;18.65;;;9.65;;
34481;SDS011;20720;48.886;9.388;2023-07-02T09:19:55;16.23;;;9.27;;
34481;SDS011;20720;48.886;9.388;2023-07-02T09:22:22;17.10;;;9.75;;
34481;SDS011;20720;48.886;9.388;2023-07-02T09:24:51;14.57;;;8.93;;
34481;SDS011;20720;48.886;9.388;2023-07-02T09:27:32;15.52;;;8.85;;
34481;SDS011;20720;48.886;9.388;2023-07-02T09:30:08;14.55;;;8.85;;
34481;SDS011;20720;48.886;9.388;2023-07-02T09:32:35;16.08;;;9.13;;
34481;SDS011;20720;48.886;9.388;2023-07-02T09:35:00;14.20;;;9.30;;
34481;SDS011;20720;48.886;9.388;2023-07-02T09:37:26;15.52;;;9.40;;
34481;SDS011;20720;48.886;9.388;2023-07-02T09:39:52;14.80;;;9.38;;
34481;SDS011;20720;48.886;9.388;2023-07-02T09:42:20;17.23;;;9.98;;
34481;SDS011;20720;48.886;9.388;2023-07-02T09:44:46;15.05;;;9.20;;
34481;SDS011;20720;48.886;9.388;2023-07-02T09:47:12;15.38;;;9.25;;
34481;SDS011;20720;48.886;9.388;2023-07-02T09:49:39;15.18;;;9.52;;
34481;SDS011;20720;48.886;9.388;2023-07-02T09:52:14;14.68;;;9.40;;
34481;SDS011;20720;48.886;9.388;2023-07-02T09:54:41;16.55;;;9.70;;
34481;SDS011;20720;48.886;9.388;2023-07-02T09:57:06;15.80;;;9.98;;
34481;SDS011;20720;48.886;9.388;2023-07-02T09:59:32;19.10;;;10.60;;
34481;SDS011;20720;48.886;9.388;2023-07-02T10:01:57;15.38;;;9.75;;
34481;SDS011;20720;48.886;9.388;2023-07-02T10:04:23;15.93;;;10.30;;
34481;SDS011;20720;48.886;9.388;2023-07-02T10:06:51;19.60;;;10.32;;
34481;SDS011;20720;48.886;9.388;2023-07-02T10:09:34;15.75;;;10.13;;
34481;SDS011;20720;48.886;9.388;2023-07-02T10:11:59;19.73;;;10.45;;
34481;SDS011;20720;48.886;9.388;2023-07-02T10:14:25;16.13;;;10.30;;
34481;SDS011;20720;48.886;9.388;2023-07-02T10:19:19;19.77;;;11.93;;
34481;SDS011;20720;48.886;9.388;2023-07-02T10:21:45;18.50;;;10.90;;
34481;SDS011;20720;48.886;9.388;2023-07-02T10:24:15;17.55;;;11.13;;
34481;SDS011;20720;48.886;9.388;2023-07-02T10:26:51;15.05;;;10.77;;
34481;SDS011;20720;48.886;9.388;2023-07-02T10:29:19;15.20;;;10.45;;
34481;SDS011;20720;48.886;9.388;2023-07-02T10:31:48;17.75;;;11.30;;
34481;SDS011;20720;48.886;9.388;2023-07-02T10:34:14;15.38;;;10.35;;
34481;SDS011;20720;48.886;9.388;2023-07-02T10:36:39;17.33;;;11.23;;
34481;SDS011;20720;48.886;9.388;2023-07-02T10:39:05;17.73;;;11.05;;
34481;SDS011;20720;48.886;9.388;2023-07-02T10:41:30;19.60;;;11.25;;
34481;SDS011;20720;48.886;9.388;2023-07-02T10:44:10;15.00;;;10.03;;
34481;SDS011;20720;48.886;9.388;2023-07-02T10:46:48;15.63;;;10.50;;
34481;SDS011;20720;48.886;9.388;2023-07-02T10:49:14;16.13;;;10.88;;
34481;SDS011;20720;48.886;9.388;2023-07-02T10:51:42;14.77;;;10.43;;
34481;SDS011;20720;48.886;9.388;2023-07-02T10:54:07;17.30;;;10.75;;
34481;SDS011;20720;48.886;9.388;2023-07-02T10:56:32;18.48;;;10.75;;
34481;SDS011;20720;48.886;9.388;2023-07-02T10:58:59;20.45;;;11.63;;
34481;SDS011;20720;48.886;9.388;2023-07-02T11:01:28;15.35;;;11.05;;
34481;SDS011;20720;48.886;9.388;2023-07-02T11:03:59;16.05;;;10.63;;
34481;SDS011;20720;48.886;9.388;2023-07-02T11:06:26;16.08;;;10.75;;
34481;SDS011;20720;48.886;9.388;2023-07-02T11:08:52;15.15;;;10.45;;
34481;SDS011;20720;48.886;9.388;2023-07-02T11:11:20;17.45;;;10.90;;
34481;SDS011;20720;48.886;9.388;2023-07-02T11:13:46;14.07;;;10.10;;
34481;SDS011;20720;48.886;9.388;2023-07-02T11:16:24;16.83;;;10.88;;
34481;SDS011;20720;48.886;9.388;2023-07-02T11:18:54;16.73;;;10.32;;
34481;SDS011;20720;48.886;9.388;2023-07-02T11:21:35;15.40;;;9.65;;
34481;SDS011;20720;48.886;9.388;2023-07-02T11:24:05;16.27;;;10.07;;
34481;SDS011;20720;48.886;9.388;2023-07-02T11:26:35;15.50;;;9.85;;
34481;SDS011;20720;48.886;9.388;2023-07-02T11:29:03;15.80;;;10.50;;
34481;SDS011;20720;48.886;9.388;2023-07-02T11:31:29;13.85;;;9.57;;
34481;SDS011;20720;48.886;9.388;2023-07-02T11:33:54;17.63;;;10.77;;
34481;SDS011;20720;48.886;9.388;2023-07-02T11:36:20;15.70;;;9.63;;
34481;SDS011;20720;48.886;9.388;2023-07-02T11:38:48;17.52;;;10.52;;
34481;SDS011;20720;48.886;9.388;2023-07-02T11:41:14;17.08;;;10.65;;
34481;SDS011;20720;48.886;9.388;2023-07-02T11:43:40;16.73;;;10.45;;
34481;SDS011;20720;48.886;9.388;2023-07-02T11:46:05;15.27;;;10.55;;
34481;SDS011;20720;48.886;9.388;2023-07-02T11:48:30;14.63;;;10.83;;
34481;SDS011;20720;48.886;9.388;2023-07-02T11:50:56;18.08;;;11.27;;
34481;SDS011;20720;48.886;9.388;2023-07-02T11:53:21;17.38;;;10.70;;
34481;SDS011;20720;48.886;9.388;2023-07-02T11:55:46;16.27;;;10.33;;
34481;SDS011;20720;48.886;9.388;2023-07-02T11:58:11;15.38;;;10.68;;
34481;SDS011;20720;48.886;9.388;2023-07-02T12:00:37;18.35;;;10.52;;
34481;SDS011;20720;48.886;9.388;2023-07-02T12:03:02;18.43;;;11.27;;
34481;SDS011;20720;48.886;9.388;2023-07-02T12:05:27;16.17;;;10.35;;
34481;SDS011;20720;48.886;9.388;2023-07-02T12:07:52;14.85;;;10.48;;
34481;SDS011;20720;48.886;9.388;2023-07-02T12:10:18;14.68;;;10.32;;
34481;SDS011;20720;48.886;9.388;2023-07-02T12:12:43;13.82;;;9.48;;
34481;SDS011;20720;48.886;9.388;2023-07-02T12:15:08;15.30;;;9.98;;
34481;SDS011;20720;48.886;9.388;2023-07-02T12:17:34;14.68;;;10.02;;
34481;SDS011;20720;48.886;9.388;2023-07-02T12:19:59;13.50;;;10.07;;
34481;SDS011;20720;48.886;9.388;2023-07-02T12:22:25;13.40;;;9.47;;
34481;SDS011;20720;48.886;9.388;2023-07-02T12:24:50;15.50;;;10.10;;
34481;SDS011;20720;48.886;9.388;2023-07-02T12:27:15;14.90;;;10.38;;
34481;SDS011;20720;48.886;9.388;2023-07-02T12:29:41;17.27;;;10.25;;
34481;SDS011;20720;48.886;9.388;2023-07-02T12:32:07;12.57;;;9.57;;
34481;SDS011;20720;48.886;9.388;2023-07-02T12:34:32;15.23;;;10.15;;
34481;SDS011;20720;48.886;9.388;2023-07-02T12:36:57;15.20;;;10.40;;
34481;SDS011;20720;48.886;9.388;2023-07-02T12:39:22;14.77;;;9.57;;
34481;SDS011;20720;48.886;9.388;2023-07-02T12:41:48;14.40;;;10.18;;
34481;SDS011;20720;48.886;9.388;2023-07-02T12:44:13;15.57;;;10.65;;
34481;SDS011;20720;48.886;9.388;2023-07-02T12:46:38;16.23;;;11.15;;
34481;SDS011;20720;48.886;9.388;2023-07-02T12:49:04;14.18;;;10.00;;
34481;SDS011;20720;48.886;9.388;2023-07-02T12:51:29;14.50;;;9.80;;
34481;SDS011;20720;48.886;9.388;2023-07-02T12:53:54;14.70;;;10.47;;
34481;SDS011;20720;48.886;9.388;2023-07-02T12:56:19;13.90;;;9.52;;
34481;SDS011;20720;48.886;9.388;2023-07-02T12:58:45;15.82;;;9.85;;
34481;SDS011;20720;48.886;9.388;2023-07-02T13:01:10;15.45;;;10.55;;
34481;SDS011;20720;48.886;9.388;2023-07-02T13:03:36;14.00;;;9.67;;
34481;SDS011;20720;48.886;9.388;2023-07-02T13:06:01;12.97;;;9.87;;
34481;SDS011;20720;48.886;9.388;2023-07-02T13:08:26;15.10;;;10.07;;
34481;SDS011;20720;48.886;9.388;2023-07-02T13:10:52;16.30;;;10.43;;
34481;SDS011;20720;48.886;9.388;2023-07-02T13:13:17;16.63;;;10.40;;
34481;SDS011;20720;48.886;9.388;2023-07-02T13:15:42;16.63;;;11.10;;
34481;SDS011;20720;48.886;9.388;2023-07-02T13:18:07;14.47;;;10.53;;
34481;SDS011;20720;48.886;9.388;2023-07-02T13:20:33;14.73;;;9.82;;
34481;SDS011;20720;48.886;9.388;2023-07-02T13:22:58;15.43;;;11.10;;
34481;SDS011;20720;48.886;9.388;2023-07-02T13:25:23;16.92;;;11.00;;
34481;SDS011;20720;48.886;9.388;2023-07-02T13:27:49;14.95;;;10.88;;
34481;SDS011;20720;48.886;9.388;2023-07-02T13:30:14;15.10;;;10.10;;
34481;SDS011;20720;48.886;9.388;2023-07-02T13:32:39;15.05;;;10.43;;
34481;SDS011;20720;48.886;9.388;2023-07-02T13:35:04;16.65;;;10.32;;
34481;SDS011;20720;48.886;9.388;2023-07-02T13:37:30;14.50;;;10.13;;
34481;SDS011;20720;48.886;9.388;2023-07-02T13:39:56;12.77;;;9.48;;
34481;SDS011;20720;48.886;9.388;2023-07-02T13:42:21;12.38;;;9.45;;
34481;SDS011;20720;48.886;9.388;2023-07-02T13:44:46;12.75;;;9.23;;
34481;SDS011;20720;48.886;9.388;2023-07-02T13:47:11;17.40;;;10.43;;
34481;SDS011;20720;48.886;9.388;2023-07-02T13:49:37;14.25;;;10.32;;
34481;SDS011;20720;48.886;9.388;2023-07-02T13:52:02;16.55;;;10.07;;
34481;SDS011;20720;48.886;9.388;2023-07-02T13:54:28;14.50;;;9.88;;
34481;SDS011;20720;48.886;9.388;2023-07-02T13:56:55;14.88;;;10.43;;
34481;SDS011;20720;48.886;9.388;2023-07-02T13:59:21;15.90;;;9.88;;
34481;SDS011;20720;48.886;9.388;2023-07-02T14:01:46;15.02;;;10.50;;
34481;SDS011;20720;48.886;9.388;2023-07-02T14:04:13;15.15;;;9.90;;
34481;SDS011;20720;48.886;9.388;2023-07-02T14:06:39;16.77;;;10.32;;
34481;SDS011;20720;48.886;9.388;2023-07-02T14:09:04;12.63;;;9.52;;
34481;SDS011;20720;48.886;9.388;2023-07-02T14:11:31;13.50;;;9.48;;
34481;SDS011;20720;48.886;9.388;2023-07-02T14:13:57;14.57;;;9.55;;
34481;SDS011;20720;48.886;9.388;2023-07-02T14:16:22;13.70;;;9.83;;
34481;SDS011;20720;48.886;9.388;2023-07-02T14:18:48;14.60;;;9.85;;
34481;SDS011;20720;48.886;9.388;2023-07-02T14:21:14;13.38;;;10.20;;
34481;SDS011;20720;48.886;9.388;2023-07-02T14:23:39;16.40;;;10.27;;
34481;SDS011;20720;48.886;9.388;2023-07-02T14:26:04;12.17;;;9.60;;
34481;SDS011;20720;48.886;9.388;2023-07-02T14:28:30;13.73;;;9.88;;
34481;SDS011;20720;48.886;9.388;2023-07-02T14:30:56;16.10;;;9.70;;
34481;SDS011;20720;48.886;9.388;2023-07-02T14:33:26;12.57;;;10.02;;
34481;SDS011;20720;48.886;9.388;2023-07-02T14:35:54;13.05;;;9.35;;